createdAt,value
2022-11-25T00:01:17.326Z,96275.88
2022-11-25T00:03:45.612Z,96274.06
2022-11-25T00:06:14.363Z,96276.06
2022-11-25T00:08:42.965Z,96283.88
2022-11-25T00:11:11.115Z,96285.84
2022-11-25T00:13:38.503Z,96286.66
2022-11-25T00:16:08.514Z,96292.25
2022-11-25T00:18:36.514Z,96278.84
2022-11-25T00:21:11.844Z,96275.88
2022-11-25T00:23:39.326Z,96283.59
2022-11-25T00:26:14.840Z,96293.19
2022-11-25T00:28:45.844Z,96291.16
2022-11-25T00:31:27.599Z,96294.72
2022-11-25T00:33:55.165Z,96289.53
2022-11-25T00:36:26.446Z,96291.34
2022-11-25T00:38:58.905Z,96292.94
2022-11-25T00:41:46.024Z,96297.31
2022-11-25T00:44:34.864Z,96288.75
2022-11-25T00:47:13.708Z,96291.94
2022-11-25T00:49:46.403Z,96290.78
2022-11-25T00:52:16.065Z,96295.19
2022-11-25T00:54:45.064Z,96299.97
2022-11-25T00:57:12.979Z,96292.59
2022-11-25T00:59:40.783Z,96300.97
2022-11-25T01:02:08.310Z,96294.81
2022-11-25T01:04:35.908Z,96296.19
2022-11-25T01:07:03.880Z,96300.38
2022-11-25T01:09:31.759Z,96304.38
2022-11-25T01:11:58.883Z,96303.19
2022-11-25T01:14:26.645Z,96297.00
2022-11-25T01:16:53.777Z,96293.44
2022-11-25T01:19:21.323Z,96293.06
2022-11-25T01:21:48.566Z,96294.84
2022-11-25T01:24:16.446Z,96289.25
2022-11-25T01:26:44.385Z,96291.66
2022-11-25T01:29:17.752Z,96292.44
2022-11-25T01:31:45.756Z,96293.63
2022-11-25T01:34:15.912Z,96306.03
2022-11-25T01:36:43.363Z,96294.84
2022-11-25T01:39:18.883Z,96301.81
2022-11-25T01:41:46.703Z,96300.41
2022-11-25T01:44:19.683Z,96299.06
2022-11-25T01:47:16.083Z,96294.09
2022-11-25T01:49:51.932Z,96287.91
2022-11-25T01:52:25.876Z,96287.72
2022-11-25T01:55:02.704Z,96287.91
2022-11-25T01:57:43.683Z,96289.50
2022-11-25T02:00:11.423Z,96291.50
2022-11-25T02:02:45.247Z,96303.84
2022-11-25T02:05:16.142Z,96304.44
2022-11-25T02:07:47.139Z,96313.38
2022-11-25T02:10:22.742Z,96303.63
2022-11-25T02:12:50.591Z,96306.81
2022-11-25T02:15:17.762Z,96314.97
2022-11-25T02:17:45.523Z,96320.59
2022-11-25T02:20:19.185Z,96319.97
2022-11-25T02:23:07.344Z,96317.38
2022-11-25T02:25:40.543Z,96318.75
2022-11-25T02:28:16.866Z,96322.13
2022-11-25T02:30:45.682Z,96323.72
2022-11-25T02:33:13.862Z,96330.34
2022-11-25T02:35:43.423Z,96330.16
2022-11-25T02:38:20.822Z,96329.16
2022-11-25T02:40:58.942Z,96341.06
2022-11-25T02:43:27.327Z,96346.03
2022-11-25T02:46:01.699Z,96340.66
2022-11-25T02:49:00.758Z,96342.94
2022-11-25T02:51:20.943Z,96340.69
2022-11-25T02:53:47.986Z,96347.84
2022-11-25T02:56:17.307Z,96343.66
2022-11-25T02:58:44.464Z,96348.44
2022-11-25T03:01:11.929Z,96349.22
2022-11-25T03:03:39.150Z,96357.50
2022-11-25T03:06:07.282Z,96357.94
2022-11-25T03:08:34.664Z,96359.16
2022-11-25T03:11:06.690Z,96356.16
2022-11-25T03:13:34.383Z,96349.19
2022-11-25T03:16:02.240Z,96353.00
2022-11-25T03:18:29.376Z,96350.75
2022-11-25T03:20:57.183Z,96347.19
2022-11-25T03:23:25.684Z,96353.97
2022-11-25T03:25:54.444Z,96365.53
2022-11-25T03:28:21.952Z,96365.94
2022-11-25T03:30:49.062Z,96364.50
2022-11-25T03:33:16.264Z,96360.75
2022-11-25T03:35:43.924Z,96361.13
2022-11-25T03:38:10.923Z,96366.47
2022-11-25T03:40:37.962Z,96362.50
2022-11-25T03:43:05.266Z,96364.84
2022-11-25T03:45:32.473Z,96367.59
2022-11-25T03:48:03.186Z,96372.38
2022-11-25T03:50:30.223Z,96373.72
2022-11-25T03:52:58.003Z,96381.31
2022-11-25T03:55:25.907Z,96383.09
2022-11-25T03:57:52.985Z,96385.28
2022-11-25T04:00:20.451Z,96389.66
2022-11-25T04:02:54.331Z,96388.66
2022-11-25T04:05:21.785Z,96391.44
2022-11-25T04:07:52.330Z,96391.44
2022-11-25T04:10:23.509Z,96393.66
2022-11-25T04:12:50.625Z,96396.84
2022-11-25T04:15:25.463Z,96395.22
2022-11-25T04:17:56.963Z,96394.66
2022-11-25T04:20:24.564Z,96385.09
2022-11-25T04:22:58.063Z,96376.53
2022-11-25T04:25:25.063Z,96376.53
2022-11-25T04:27:52.564Z,96383.31
2022-11-25T04:30:26.466Z,96377.13
2022-11-25T04:32:54.268Z,96370.59
2022-11-25T04:35:21.406Z,96372.78
2022-11-25T04:37:52.403Z,96381.00
2022-11-25T04:40:19.523Z,96373.22
2022-11-25T04:42:59.340Z,96375.38
2022-11-25T04:45:45.395Z,96375.59
2022-11-25T04:48:17.223Z,96373.31
2022-11-25T04:50:45.584Z,96371.53
2022-11-25T04:53:13.923Z,96365.69
2022-11-25T04:55:41.508Z,96363.84
2022-11-25T04:58:14.943Z,96375.31
2022-11-25T05:00:43.051Z,96364.75
2022-11-25T05:03:12.403Z,96357.00
2022-11-25T05:05:39.763Z,96352.03
2022-11-25T05:08:07.427Z,96360.59
2022-11-25T05:10:34.752Z,96359.50
2022-11-25T05:13:01.787Z,96349.22
2022-11-25T05:15:30.457Z,96352.88
2022-11-25T05:17:57.638Z,96349.97
2022-11-25T05:20:40.907Z,96352.69
2022-11-25T05:23:08.064Z,96352.28
2022-11-25T05:25:35.049Z,96346.72
2022-11-25T05:28:21.065Z,96341.41
2022-11-25T05:30:48.352Z,96354.31
2022-11-25T05:33:15.841Z,96356.16
2022-11-25T05:35:43.560Z,96349.38
2022-11-25T05:38:10.600Z,96350.16
2022-11-25T05:40:38.432Z,96347.41
2022-11-25T05:43:10.281Z,96358.56
2022-11-25T05:45:40.005Z,96358.13
2022-11-25T05:48:09.273Z,96358.72
2022-11-25T05:50:37.451Z,96365.69
2022-11-25T05:53:14.123Z,96365.88
2022-11-25T05:55:41.501Z,96360.88
2022-11-25T05:58:17.831Z,96368.59
2022-11-25T06:00:50.227Z,96371.56
2022-11-25T06:03:17.530Z,96380.69
2022-11-25T06:05:45.578Z,96380.81
2022-11-25T06:08:13.956Z,96394.97
2022-11-25T06:10:41.326Z,96397.69
2022-11-25T06:13:09.638Z,96412.97
2022-11-25T06:15:42.533Z,96415.31
2022-11-25T06:18:12.223Z,96417.56
2022-11-25T06:20:39.758Z,96429.13
2022-11-25T06:23:07.856Z,96429.38
2022-11-25T06:25:37.539Z,96423.84
2022-11-25T06:28:12.773Z,96429.88
2022-11-25T06:30:41.439Z,96436.38
2022-11-25T06:33:18.157Z,96432.41
2022-11-25T06:35:48.498Z,96431.06
2022-11-25T06:38:15.476Z,96430.56
2022-11-25T06:40:42.523Z,96424.66
2022-11-25T06:43:09.598Z,96426.94
2022-11-25T06:45:36.736Z,96424.03
2022-11-25T06:48:04.039Z,96422.31
2022-11-25T06:50:31.045Z,96430.66
2022-11-25T06:53:00.205Z,96432.94
2022-11-25T06:55:27.178Z,96436.28
2022-11-25T06:58:13.628Z,96430.31
2022-11-25T07:00:41.301Z,96433.34
2022-11-25T07:03:08.264Z,96427.13
2022-11-25T07:05:35.318Z,96427.81
2022-11-25T07:08:02.400Z,96448.78
2022-11-25T07:10:29.410Z,96449.63
2022-11-25T07:12:57.638Z,96448.19
2022-11-25T07:15:24.668Z,96452.63
2022-11-25T07:17:51.645Z,96461.63
2022-11-25T07:20:18.839Z,96459.28
2022-11-25T07:22:45.923Z,96474.00
2022-11-25T07:25:13.058Z,96472.91
2022-11-25T07:27:39.998Z,96471.78
2022-11-25T07:30:54.824Z,96471.41
2022-11-25T07:32:55.536Z,96482.22
2022-11-25T07:35:22.579Z,96485.03
2022-11-25T07:37:49.671Z,96482.66
2022-11-25T07:40:16.738Z,96488.31
2022-11-25T07:42:43.718Z,96489.16
2022-11-25T07:45:10.961Z,96486.22
2022-11-25T07:47:44.841Z,96497.00
2022-11-25T07:50:12.078Z,96496.03
2022-11-25T07:52:40.887Z,96505.31
2022-11-25T07:55:08.527Z,96504.31
2022-11-25T07:57:35.688Z,96496.72
2022-11-25T08:00:03.040Z,96501.34
2022-11-25T08:02:38.812Z,96503.75
2022-11-25T08:05:06.680Z,96504.00
2022-11-25T08:07:36.732Z,96507.22
2022-11-25T08:10:04.460Z,96502.84
2022-11-25T08:12:32.861Z,96497.47
2022-11-25T08:14:59.739Z,96500.28
2022-11-25T08:17:26.664Z,96503.06
2022-11-25T08:19:53.738Z,96505.66
2022-11-25T08:22:20.778Z,96501.50
2022-11-25T08:24:47.879Z,96501.50
2022-11-25T08:27:14.938Z,96500.31
2022-11-25T08:29:42.161Z,96498.50
2022-11-25T08:32:11.988Z,96505.88
2022-11-25T08:34:39.221Z,96506.25
2022-11-25T08:37:07.840Z,96515.84
2022-11-25T08:39:51.670Z,96510.59
2022-11-25T08:42:19.760Z,96511.78
2022-11-25T08:44:51.061Z,96518.16
2022-11-25T08:47:18.178Z,96516.50
2022-11-25T08:49:45.585Z,96515.25
2022-11-25T08:52:12.657Z,96517.19
2022-11-25T08:54:39.724Z,96523.72
2022-11-25T08:57:07.038Z,96518.47
2022-11-25T08:59:34.844Z,96523.38
2022-11-25T09:02:02.855Z,96520.28
2022-11-25T09:04:29.949Z,96515.34
2022-11-25T09:06:56.918Z,96506.63
2022-11-25T09:09:24.000Z,96509.31
2022-11-25T09:11:51.109Z,96515.00
2022-11-25T09:14:18.234Z,96511.09
2022-11-25T09:16:45.484Z,96514.38
2022-11-25T09:19:12.626Z,96504.38
2022-11-25T09:21:39.659Z,96512.66
2022-11-25T09:24:06.717Z,96501.31
2022-11-25T09:26:35.974Z,96506.13
2022-11-25T09:29:04.119Z,96506.16
2022-11-25T09:31:31.112Z,96503.63
2022-11-25T09:33:58.464Z,96509.72
2022-11-25T09:36:25.459Z,96504.53
2022-11-25T09:38:53.306Z,96497.75
2022-11-25T09:41:47.718Z,96491.66
2022-11-25T09:44:54.848Z,96485.34
2022-11-25T09:47:46.854Z,96491.03
2022-11-25T09:50:21.338Z,96488.09
2022-11-25T09:53:08.781Z,96484.84
2022-11-25T09:55:45.226Z,96482.78
2022-11-25T09:58:27.319Z,96484.66
2022-11-25T10:00:54.478Z,96491.63
2022-11-25T10:03:39.821Z,96477.81
2022-11-25T10:06:20.548Z,96483.16
2022-11-25T10:08:53.260Z,96480.72
2022-11-25T10:11:50.177Z,96484.28
2022-11-25T10:14:46.805Z,96478.03
2022-11-25T10:17:40.302Z,96465.16
2022-11-25T10:20:20.522Z,96454.56
2022-11-25T10:22:52.358Z,96454.19
2022-11-25T10:25:25.625Z,96453.13
2022-11-25T10:27:59.618Z,96451.19
2022-11-25T10:30:34.360Z,96444.78
2022-11-25T10:33:27.620Z,96432.13
2022-11-25T10:35:54.640Z,96433.00
2022-11-25T10:38:39.281Z,96423.59
2022-11-25T10:41:07.878Z,96424.91
2022-11-25T10:43:39.677Z,96431.81
2022-11-25T10:46:06.829Z,96424.69
2022-11-25T10:48:56.961Z,96420.56
2022-11-25T10:51:37.860Z,96417.72
2022-11-25T10:54:27.617Z,96422.50
2022-11-25T10:57:00.619Z,96425.41
2022-11-25T10:59:31.658Z,96420.09
2022-11-25T11:02:24.220Z,96414.63
2022-11-25T11:05:09.698Z,96405.47
2022-11-25T11:07:39.949Z,96408.50
2022-11-25T11:10:20.619Z,96410.84
2022-11-25T11:13:06.526Z,96407.31
2022-11-25T11:15:47.532Z,96397.84
2022-11-25T11:18:37.441Z,96397.59
2022-11-25T11:21:07.639Z,96391.06
2022-11-25T11:23:49.698Z,96396.41
2022-11-25T11:26:26.165Z,96398.53
2022-11-25T11:29:14.322Z,96398.81
2022-11-25T11:31:48.429Z,96397.78
2022-11-25T11:34:33.611Z,96397.50
2022-11-25T11:37:03.498Z,96399.59
2022-11-25T11:40:03.537Z,96402.03
2022-11-25T11:42:36.657Z,96402.81
2022-11-25T11:45:16.119Z,96398.06
2022-11-25T11:48:16.624Z,96392.50
2022-11-25T11:50:59.939Z,96391.72
2022-11-25T11:53:45.760Z,96392.75
2022-11-25T11:56:35.165Z,96389.84
2022-11-25T11:59:18.057Z,96395.66
2022-11-25T12:13:39.080Z,96380.47
2022-11-25T12:16:16.645Z,96383.84
2022-11-25T12:19:02.406Z,96381.44
2022-11-25T12:21:55.261Z,96379.13
2022-11-25T12:24:33.424Z,96371.63
2022-11-25T12:27:05.846Z,96373.75
2022-11-25T12:29:48.218Z,96376.34
2022-11-25T12:32:18.458Z,96370.38
2022-11-25T12:34:54.220Z,96379.28
2022-11-25T12:38:05.459Z,96371.34
2022-11-25T12:40:40.918Z,96362.91
2022-11-25T12:43:13.580Z,96368.78
2022-11-25T12:45:43.168Z,96359.31
2022-11-25T12:48:13.681Z,96360.75
2022-11-25T12:50:55.739Z,96364.88
2022-11-25T12:53:35.218Z,96358.41
2022-11-25T12:56:05.358Z,96358.41
2022-11-25T12:58:57.336Z,96360.72
2022-11-25T13:01:47.248Z,96362.00
2022-11-25T13:05:00.466Z,96369.53
2022-11-25T13:07:56.184Z,96370.53
2022-11-25T13:10:28.899Z,96365.44
2022-11-25T13:13:27.657Z,96363.47
2022-11-25T13:15:57.613Z,96362.56
2022-11-25T13:18:29.378Z,96352.38
2022-11-25T13:20:57.439Z,96361.06
2022-11-25T13:23:27.259Z,96353.09
2022-11-25T13:26:14.781Z,96362.03
2022-11-25T13:28:41.887Z,96361.63
2022-11-25T13:31:14.987Z,96353.88
2022-11-25T13:33:45.006Z,96364.50
2022-11-25T13:36:25.299Z,96367.19
2022-11-25T13:38:52.280Z,96365.69
2022-11-25T13:41:25.459Z,96363.69
2022-11-25T13:44:04.834Z,96365.25
2022-11-25T13:46:45.155Z,96368.94
2022-11-25T13:49:36.617Z,96371.69
2022-11-25T13:52:17.077Z,96382.69
2022-11-25T13:54:46.541Z,96381.78
2022-11-25T13:57:13.548Z,96388.41
2022-11-25T13:59:43.602Z,96385.13
2022-11-25T14:02:29.100Z,96399.44
2022-11-25T14:05:07.981Z,96392.66
2022-11-25T14:08:01.159Z,96397.13
2022-11-25T14:10:40.119Z,96394.78
2022-11-25T14:13:23.037Z,96394.31
2022-11-25T14:16:17.872Z,96396.69
2022-11-25T14:19:50.700Z,96388.59
2022-11-25T14:22:23.560Z,96392.00
2022-11-25T14:24:55.157Z,96394.19
2022-11-25T14:27:34.341Z,96397.16
2022-11-25T14:30:05.918Z,96398.06
2022-11-25T14:33:02.601Z,96390.50
2022-11-25T14:35:52.602Z,96392.91
2022-11-25T14:38:40.938Z,96392.19
2022-11-25T14:41:16.601Z,96401.47
2022-11-25T14:43:48.839Z,96403.13
2022-11-25T14:46:17.252Z,96399.53
2022-11-25T14:48:44.954Z,96399.47
2022-11-25T14:51:14.140Z,96403.72
2022-11-25T14:53:48.109Z,96405.72
2022-11-25T14:56:22.300Z,96397.22
2022-11-25T14:58:52.644Z,96400.66
2022-11-25T15:01:32.791Z,96396.72
2022-11-25T15:04:02.938Z,96404.59
2022-11-25T15:06:39.245Z,96404.69
2022-11-25T15:09:23.898Z,96407.44
2022-11-25T15:12:13.037Z,96406.31
2022-11-25T15:14:44.059Z,96412.44
2022-11-25T15:17:37.565Z,96416.31
2022-11-25T15:20:12.925Z,96418.69
2022-11-25T15:22:45.500Z,96427.09
2022-11-25T15:25:15.868Z,96426.63
2022-11-25T15:27:49.298Z,96427.41
2022-11-25T15:30:20.958Z,96425.75
2022-11-25T15:32:49.280Z,96426.66
2022-11-25T15:35:23.901Z,96430.59
2022-11-25T15:37:50.917Z,96421.47
2022-11-25T15:40:36.814Z,96425.19
2022-11-25T15:43:25.809Z,96428.31
2022-11-25T15:45:57.862Z,96429.41
2022-11-25T15:48:49.740Z,96433.09
2022-11-25T15:51:31.739Z,96431.59
2022-11-25T15:54:17.707Z,96433.47
2022-11-25T15:57:06.879Z,96433.56
2022-11-25T15:59:42.858Z,96433.28
2022-11-25T16:02:36.516Z,96440.75
2022-11-25T16:05:15.319Z,96436.81
2022-11-25T16:07:51.134Z,96433.06
2022-11-25T16:10:21.918Z,96436.28
2022-11-25T16:13:21.180Z,96442.38
2022-11-25T16:16:07.439Z,96448.03
2022-11-25T16:18:49.458Z,96442.88
2022-11-25T16:21:28.100Z,96450.91
2022-11-25T16:24:09.898Z,96447.94
2022-11-25T16:26:40.449Z,96457.00
2022-11-25T16:29:40.973Z,96453.00
2022-11-25T16:32:20.839Z,96456.81
2022-11-25T16:34:48.338Z,96465.44
2022-11-25T16:37:15.468Z,96464.44
2022-11-25T16:39:42.577Z,96461.03
2022-11-25T16:42:20.981Z,96464.44
2022-11-25T16:44:50.910Z,96470.66
2022-11-25T16:47:20.486Z,96468.84
2022-11-25T16:49:47.778Z,96470.66
2022-11-25T16:52:15.318Z,96476.66
2022-11-25T16:54:42.429Z,96478.66
2022-11-25T16:57:17.018Z,96478.66
2022-11-25T16:59:45.682Z,96485.72
2022-11-25T17:02:21.899Z,96496.72
2022-11-25T17:04:50.347Z,96496.16
2022-11-25T17:07:33.639Z,96491.94
2022-11-25T17:10:01.089Z,96487.56
2022-11-25T17:12:32.260Z,96486.34
2022-11-25T17:15:00.945Z,96491.56
2022-11-25T17:17:28.785Z,96484.75
2022-11-25T17:19:55.903Z,96483.94
2022-11-25T17:22:25.460Z,96491.75
2022-11-25T17:24:52.583Z,96485.19
2022-11-25T17:27:29.922Z,96485.38
2022-11-25T17:29:58.917Z,96485.38
2022-11-25T17:32:26.587Z,96488.00
2022-11-25T17:34:53.772Z,96494.22
2022-11-25T17:37:25.365Z,96484.59
2022-11-25T17:39:53.813Z,96483.59
2022-11-25T17:42:32.294Z,96490.00
2022-11-25T17:45:00.127Z,96494.81
2022-11-25T17:47:27.219Z,96494.41
2022-11-25T17:49:54.949Z,96496.22
2022-11-25T17:52:22.166Z,96505.28
2022-11-25T17:54:49.406Z,96506.91
2022-11-25T17:57:21.417Z,96523.59
2022-11-25T17:59:49.220Z,96526.47
2022-11-25T18:02:21.340Z,96520.50
2022-11-25T18:04:49.147Z,96527.13
2022-11-25T18:07:17.187Z,96525.16
2022-11-25T18:09:44.662Z,96527.56
2022-11-25T18:12:31.099Z,96529.78
2022-11-25T18:14:58.268Z,96526.22
2022-11-25T18:17:25.360Z,96530.84
2022-11-25T18:19:55.577Z,96540.06
2022-11-25T18:22:24.383Z,96538.09
2022-11-25T18:24:52.780Z,96540.50
2022-11-25T18:27:28.840Z,96549.72
2022-11-25T18:29:56.802Z,96544.97
2022-11-25T18:32:25.381Z,96548.16
2022-11-25T18:34:52.863Z,96553.34
2022-11-25T18:37:19.999Z,96559.56
2022-11-25T18:39:47.293Z,96558.75
2022-11-25T18:42:27.053Z,96561.16
2022-11-25T18:44:56.202Z,96568.16
2022-11-25T18:47:23.752Z,96567.78
2022-11-25T18:49:55.532Z,96569.78
2022-11-25T18:52:24.638Z,96567.78
2022-11-25T18:54:51.622Z,96565.75
2022-11-25T18:57:19.556Z,96572.16
2022-11-25T18:59:55.941Z,96573.78
2022-11-25T19:02:35.099Z,96578.19
2022-11-25T19:05:03.042Z,96577.78
2022-11-25T19:07:30.028Z,96578.19
2022-11-25T19:09:57.102Z,96584.00
2022-11-25T19:12:24.639Z,96590.41
2022-11-25T19:14:52.879Z,96587.59
2022-11-25T19:17:21.891Z,96583.44
2022-11-25T19:19:48.981Z,96583.63
2022-11-25T19:22:17.913Z,96586.63
2022-11-25T19:24:46.327Z,96585.81
2022-11-25T19:27:20.187Z,96587.25
2022-11-25T19:29:48.141Z,96594.25
2022-11-25T19:32:24.460Z,96595.06
2022-11-25T19:34:55.128Z,96593.63
2022-11-25T19:37:23.147Z,96602.03
2022-11-25T19:39:52.359Z,96603.44
2022-11-25T19:42:19.699Z,96609.44
2022-11-25T19:44:47.279Z,96610.03
2022-11-25T19:47:19.929Z,96617.03
2022-11-25T19:49:47.642Z,96618.03
2022-11-25T19:52:31.329Z,96616.03
2022-11-25T19:54:58.380Z,96622.03
2022-11-25T19:57:25.599Z,96630.25
2022-11-25T19:59:52.700Z,96631.81
2022-11-25T20:02:22.381Z,96632.06
2022-11-25T20:04:52.958Z,96631.63
2022-11-25T20:07:21.363Z,96634.25
2022-11-25T20:09:49.579Z,96644.47
2022-11-25T20:12:19.318Z,96640.63
2022-11-25T20:14:46.763Z,96640.06
2022-11-25T20:17:33.125Z,96642.06
2022-11-25T20:20:06.561Z,96642.06
2022-11-25T20:22:37.939Z,96646.84
2022-11-25T20:25:07.742Z,96647.44
2022-11-25T20:27:34.838Z,96651.66
2022-11-25T20:30:01.819Z,96661.06
2022-11-25T20:32:31.298Z,96658.25
2022-11-25T20:34:59.260Z,96652.84
2022-11-25T20:37:30.100Z,96656.25
2022-11-25T20:40:00.288Z,96654.25
2022-11-25T20:42:27.667Z,96652.66
2022-11-25T20:44:57.698Z,96653.03
2022-11-25T20:47:26.512Z,96662.44
2022-11-25T20:49:54.099Z,96664.47
2022-11-25T20:52:33.046Z,96653.84
2022-11-25T20:55:02.058Z,96661.25
2022-11-25T20:57:29.320Z,96662.25
2022-11-25T20:59:56.286Z,96659.03
2022-11-25T21:02:23.467Z,96668.63
2022-11-25T21:04:50.522Z,96665.84
2022-11-25T21:07:20.613Z,96674.22
2022-11-25T21:09:47.738Z,96671.00
2022-11-25T21:12:19.271Z,96685.38
2022-11-25T21:14:47.646Z,96685.97
2022-11-25T21:17:14.866Z,96685.56
2022-11-25T21:19:41.858Z,96691.78
2022-11-25T21:22:14.854Z,96689.56
2022-11-25T21:24:42.921Z,96690.72
2022-11-25T21:27:15.708Z,96695.13
2022-11-25T21:29:45.405Z,96693.72
2022-11-25T21:32:23.664Z,96696.91
2022-11-25T21:34:50.860Z,96704.47
2022-11-25T21:37:25.919Z,96701.28
2022-11-25T21:39:53.060Z,96700.88
2022-11-25T21:42:21.582Z,96704.28
2022-11-25T21:44:50.271Z,96706.25
2022-11-25T21:47:22.559Z,96703.25
2022-11-25T21:49:50.578Z,96704.44
2022-11-25T21:52:18.677Z,96701.03
2022-11-25T21:54:46.385Z,96713.00
2022-11-25T21:57:21.720Z,96716.59
2022-11-25T21:59:49.082Z,96713.56
2022-11-25T22:02:19.380Z,96715.56
2022-11-25T22:04:46.858Z,96712.53
2022-11-25T22:07:14.752Z,96713.53
2022-11-25T22:09:42.646Z,96714.72
2022-11-25T22:12:30.847Z,96715.09
2022-11-25T22:14:59.677Z,96722.84
2022-11-25T22:17:27.159Z,96717.84
2022-11-25T22:19:54.238Z,96732.63
2022-11-25T22:22:21.542Z,96733.25
2022-11-25T22:24:48.585Z,96729.47
2022-11-25T22:27:25.284Z,96727.06
2022-11-25T22:29:53.303Z,96733.06
2022-11-25T22:32:20.725Z,96736.81
2022-11-25T22:34:47.921Z,96745.38
2022-11-25T22:37:21.040Z,96758.97
2022-11-25T22:39:48.458Z,96746.59
2022-11-25T22:42:27.927Z,96747.56
2022-11-25T22:44:57.615Z,96754.00
2022-11-25T22:47:38.161Z,96749.00
2022-11-25T22:50:30.218Z,96742.44
2022-11-25T22:52:59.259Z,96741.84
2022-11-25T22:55:28.985Z,96749.81
2022-11-25T22:57:59.000Z,96752.59
2022-11-25T23:00:56.577Z,96760.19
2022-11-25T23:03:27.218Z,96760.31
2022-11-25T23:05:54.548Z,96759.72
2022-11-25T23:08:24.797Z,96759.53
2022-11-25T23:10:52.638Z,96763.53
2022-11-25T23:13:23.404Z,96767.75
2022-11-25T23:15:59.035Z,96770.38
2022-11-25T23:18:38.945Z,96767.59
2022-11-25T23:21:14.378Z,96769.81
2022-11-25T23:23:41.478Z,96759.81
2022-11-25T23:26:11.327Z,96773.59
2022-11-25T23:28:38.605Z,96770.13
2022-11-25T23:31:06.039Z,96775.72
2022-11-25T23:33:37.300Z,96771.50
2022-11-25T23:36:26.118Z,96772.28
2022-11-25T23:38:59.420Z,96768.53
2022-11-25T23:41:29.446Z,96780.72
2022-11-25T23:43:56.798Z,96768.25
2022-11-25T23:46:26.578Z,96772.97
2022-11-25T23:48:58.936Z,96768.03
2022-11-25T23:51:28.521Z,96775.81
2022-11-25T23:53:56.678Z,96769.44
2022-11-25T23:56:26.077Z,96780.63
2022-11-25T23:58:53.138Z,96783.44
